LCLKLLET

Guest
Details From LCLK - Larnaca
To LLET - EILAT
Flight Number -
Tags generated
Created
Modified
Stats Distance 329 nm / 610 km
Max Altitude 35,000 ft / 10,668 m
Waypoints 8
Social Downloads 0
Likes 0
Share VATSIM

Download

Looking for another format? Having issues loading an existing format? Contact us
Advertisement - Login to hide

Notes

Basic altitude profile: - Ascent Rate: 2500ft/min - Ascent Speed: 250kts - Cruise Altitude: 35000ft - Cruise Speed: 420kts - Descent Rate: 1500ft/min - Descent Speed: 250kts Options: - Use NATs: yes - Use PACOTS: yes - Use low airways: yes - Use high airways: yes

Route

LCLK LCA B17 VELOX UW13 SOLIN H2C TIBBI UJ12 BSA LLET

ID Type Via Altitude Latitude Longitude Leg Dist Tot Dist Heading (true) Name
O LCLK APT - 0 ft / 0 m 34.87512˚ 33.62483˚ - 0 nm - Larnaca
LCA VOR - 0 ft / 0 m 34.87333˚ 33.62667˚ 0 nm 0 nm 140° / 140° LARNACA VOR-DME
BOSIS FIX B17 (AWY-LO) 5,700 ft / 1,737 m 34.62333˚ 33.74000˚ 16 nm 16 nm 160° / 160° -
VELOX FIX B17 (AWY-LO) 23,100 ft / 7,041 m 33.81667˚ 34.08333˚ 51 nm 67 nm 161° / 161° -
SOLIN FIX UW13 (AWY-HI) 35,000 ft / 10,668 m 32.49451˚ 34.17077˚ 79 nm 147 nm 177° / 177° -
TIBBI FIX H2C (AWY-HI) 31,600 ft / 9,632 m 32.03394˚ 34.38577˚ 29 nm 176 nm 158° / 159° -
BSA VOR UJ12 (AWY-HI) 21,300 ft / 6,492 m 31.28616˚ 34.72134˚ 48 nm 224 nm 159° / 159° BEER-SHEBA VOR
O LLET APT - 0 ft / 0 m 29.56127˚ 34.96011˚ 104 nm 329 nm 173° / 173° EILAT

Altitude Profile

Advertisement - Login to hide

Weather


0- 5 10 15 20 25 30 35+ Temperature / ° C

Clouds and Precipitation
Forecast for 2017-12-13 18:00 UTC. Updated 2 hours ago

Ground ~20,000 ft ~40,000 ft Winds

LCLK

Details ICAO LCLK (LCA)
Name Larnaca
Region Cyprus
Timezone Asia/Nicosia (UTC+2.0)
Stats Elevation 8 ft / 2 m (AMSL)
Location 34.875115° 33.624832°
Runways 1
Magnetic Variation 4.990° E

METAR

LCLK 131700Z 32005KT 9999 FEW040 13/07 Q1018 NOSIG

Decode

TAF

TAF LCLK 131130Z 1312/1412 33014KT 9999 FEW030 BECMG 1408/1410 21014KT

Decode

Departure Runways

ID Width Length Bearing (true) Bearing (mag) Surface Threshold Offset Overrun Length
04 148 ft / 45 m 9,771 ft / 2,978 m 45.15° 40.16° Asphalt 0 ft / 0 m 210 ft / 64 m
22 148 ft / 45 m 9,771 ft / 2,978 m 225.17° 220.18° Asphalt 575 ft / 175 m 0 ft / 0 m

LLET

Details ICAO LLET (ETH)
Name EILAT
Region Israel
Timezone Asia/Jerusalem (UTC+2.0)
Stats Elevation 42 ft / 13 m (AMSL)
Location 29.561268° 34.960111°
Runways 1
Magnetic Variation 4.430° E

METAR

LLET 131650Z 35007KT CAVOK 21/10 Q1018

Decode

TAF

TAF LLET 131110Z 1312/1412 02015KT CAVOK BECMG 1316/1318 34010KT 9999 FEW040 BECMG 1404/1406 02012KT CAVOK TX25/1312Z TN13/1404Z

Decode

Destination Runways

ID Width Length Bearing (true) Bearing (mag) Surface Threshold Offset Overrun Length
03 89 ft / 27 m 6,249 ft / 1,905 m 27.93° 23.50° Asphalt 945 ft / 288 m 125 ft / 38 m
21 89 ft / 27 m 6,249 ft / 1,905 m 207.93° 203.50° Asphalt 0 ft / 0 m 0 ft / 0 m